Time;durP1;ratioP1;P1;durP2;ratioP2;P2;SDS_P1;SDS_P2;PMS_P1;PMS_P2;Temp;Humidity;BMP_temperature;BMP_pressure;BME280_temperature;BME280_humidity;BME280_pressure;Samples;Min_cycle;Max_cycle;Signal;HPM_P1;HPM_P2
2021/12/01 00:01:31;;;;;;;1.00;1.00;;;;;;;7.66;100.00;98672.06;6163009;23;20006;-80
2021/12/01 00:03:56;;;;;;;1.00;1.00;;;;;;;7.67;100.00;98661.25;6137184;23;20057;-80
2021/12/01 00:06:21;;;;;;;1.15;1.05;;;;;;;7.68;100.00;98668.25;6163003;23;20013;-81
2021/12/01 00:08:47;;;;;;;1.52;1.38;;;;;;;7.67;100.00;98653.28;6137283;23;20044;-80
2021/12/01 00:11:12;;;;;;;1.38;1.27;;;;;;;7.68;100.00;98651.47;6163082;23;20018;-81
2021/12/01 00:13:37;;;;;;;1.88;1.45;;;;;;;7.68;100.00;98639.00;6136984;23;20025;-79
2021/12/01 00:16:03;;;;;;;1.50;1.35;;;;;;;7.69;100.00;98642.50;6161288;23;20037;-81
2021/12/01 00:18:29;;;;;;;1.45;1.35;;;;;;;7.68;100.00;98648.78;6137099;23;20029;-81
2021/12/01 00:20:56;;;;;;;2.13;1.50;;;;;;;7.70;100.00;98638.84;6137854;23;20084;-80
2021/12/01 00:23:21;;;;;;;2.63;1.70;;;;;;;7.68;100.00;98632.84;6137386;23;20057;-81
2021/12/01 00:25:46;;;;;;;1.52;1.42;;;;;;;7.68;100.00;98622.19;6163572;23;20010;-81
2021/12/01 00:28:15;;;;;;;1.70;1.45;;;;;;;7.69;100.00;98611.41;6137596;23;20005;-81
2021/12/01 00:30:41;;;;;;;2.92;1.75;;;;;;;7.69;100.00;98605.25;6138501;23;20001;-81
2021/12/01 00:33:09;;;;;;;3.00;1.80;;;;;;;7.67;100.00;98609.88;6164333;23;20036;-80
2021/12/01 00:35:35;;;;;;;1.60;1.50;;;;;;;7.69;100.00;98613.22;6138658;23;20013;-80
2021/12/01 00:38:00;;;;;;;3.40;1.65;;;;;;;7.67;100.00;98594.75;6165621;23;20453;-81
2021/12/01 00:40:25;;;;;;;2.10;1.70;;;;;;;7.67;100.00;98586.78;6163716;23;20064;-79
2021/12/01 00:42:51;;;;;;;1.58;1.48;;;;;;;7.67;100.00;98592.09;6139548;23;20453;-80
2021/12/01 00:45:21;;;;;;;1.42;1.33;;;;;;;7.68;100.00;98576.97;6138797;23;20021;-79
2021/12/01 00:47:54;;;;;;;1.85;1.75;;;;;;;7.65;100.00;98570.13;6140343;23;20013;-80
2021/12/01 00:50:23;;;;;;;1.50;1.40;;;;;;;7.67;100.00;98556.66;6140434;23;20012;-80
2021/12/01 00:52:49;;;;;;;1.42;1.33;;;;;;;7.65;100.00;98548.00;6165767;23;20009;-79
2021/12/01 00:55:15;;;;;;;1.40;1.30;;;;;;;7.64;100.00;98544.50;6163203;23;20016;-80
2021/12/01 00:57:40;;;;;;;1.55;1.30;;;;;;;7.64;100.00;98536.53;6165617;23;20009;-80
2021/12/01 01:00:07;;;;;;;1.95;1.50;;;;;;;7.65;100.00;98526.72;6139175;23;20013;-81
2021/12/01 01:02:33;;;;;;;1.75;1.40;;;;;;;7.65;100.00;98518.75;6138742;23;20460;-80
2021/12/01 01:04:58;;;;;;;1.40;1.30;;;;;;;7.64;100.00;98523.22;6164640;23;20002;-80
2021/12/01 01:07:24;;;;;;;1.40;1.30;;;;;;;7.64;100.00;98525.88;6139644;23;20037;-81
2021/12/01 01:09:49;;;;;;;1.67;1.58;;;;;;;7.64;100.00;98515.25;6164734;23;20017;-81
2021/12/01 01:17:46;;;;;;;2.08;1.88;;;;;;;7.64;100.00;98511.75;6142993;23;20017;-80
2021/12/01 01:20:13;;;;;;;2.63;1.67;;;;;;;7.62;100.00;98501.28;6115283;23;20398;-80
2021/12/01 01:22:40;;;;;;;2.03;1.90;;;;;;;7.62;100.00;98493.28;6165002;23;20031;-81
2021/12/01 01:25:07;;;;;;;1.95;1.80;;;;;;;7.62;100.00;98490.63;6138346;23;20013;-80
2021/12/01 01:27:33;;;;;;;1.98;1.88;;;;;;;7.63;100.00;98500.28;6163716;23;20040;-80
2021/12/01 01:29:58;;;;;;;2.22;2.03;;;;;;;7.63;100.00;98499.44;6163296;23;20402;-80
2021/12/01 01:32:24;;;;;;;3.38;2.10;;;;;;;7.64;100.00;98487.81;6138857;23;20009;-81
2021/12/01 01:34:49;;;;;;;3.58;2.30;;;;;;;7.64;100.00;98496.63;6138462;23;20012;-80
2021/12/01 01:37:15;;;;;;;2.95;2.28;;;;;;;7.64;100.00;98501.94;6164931;23;20425;-81
2021/12/01 01:39:40;;;;;;;2.60;2.40;;;;;;;7.65;100.00;98473.53;6164721;23;20031;-80
2021/12/01 01:42:06;;;;;;;3.03;2.83;;;;;;;7.64;100.00;98480.66;6164733;23;20014;-80
2021/12/01 01:44:31;;;;;;;3.25;2.95;;;;;;;7.65;100.00;98476.19;6138197;23;20068;-81
2021/12/01 01:46:57;;;;;;;3.55;3.13;;;;;;;7.65;100.00;98466.38;6139151;23;20053;-80
2021/12/01 01:49:35;;;;;;;3.83;3.25;;;;;;;7.64;100.00;98467.38;6138731;23;20087;-80
2021/12/01 01:52:01;;;;;;;4.00;3.45;;;;;;;7.66;100.00;98465.38;6142137;23;19998;-81
2021/12/01 01:54:26;;;;;;;5.00;3.70;;;;;;;7.66;100.00;98448.59;6138138;23;20017;-80
2021/12/01 01:56:52;;;;;;;4.47;4.07;;;;;;;7.61;100.00;98426.94;6165046;23;20006;-81
2021/12/01 01:59:17;;;;;;;4.30;3.90;;;;;;;7.60;100.00;98415.47;6162896;23;20020;-80
2021/12/01 02:01:46;;;;;;;4.13;3.72;;;;;;;7.60;100.00;98450.03;6163346;23;20012;-80
2021/12/01 02:04:15;;;;;;;4.95;3.55;;;;;;;7.60;100.00;98409.31;6139413;23;20009;-82
2021/12/01 02:06:40;;;;;;;;;;;;;;;7.59;100.00;98400.50;6138973;23;20341;-81
2021/12/01 02:09:06;;;;;;;4.97;4.03;;;;;;;7.59;100.00;98389.84;6138617;23;19935;-80
2021/12/01 02:11:32;;;;;;;4.35;3.95;;;;;;;7.60;100.00;98377.41;6138090;23;20021;-80
2021/12/01 02:13:57;;;;;;;5.22;4.72;;;;;;;7.60;100.00;98393.34;6138216;23;20073;-81
2021/12/01 02:16:23;;;;;;;5.35;4.35;;;;;;;7.60;100.00;98385.38;6164309;23;20077;-81
2021/12/01 02:18:49;;;;;;;4.97;4.45;;;;;;;7.59;100.00;98384.53;6138740;23;20029;-79
2021/12/01 02:21:18;;;;;;;5.18;4.68;;;;;;;7.61;100.00;98368.41;6138426;23;19998;-80
2021/12/01 02:23:49;;;;;;;4.85;4.40;;;;;;;7.58;100.00;98365.09;6138550;23;20013;-80
2021/12/01 02:26:17;;;;;;;4.88;4.32;;;;;;;7.60;100.00;98364.94;6137989;23;20013;-82
2021/12/01 02:28:43;;;;;;;5.25;4.70;;;;;;;7.58;100.00;98351.78;6164245;23;20009;-80
2021/12/01 02:31:09;;;;;;;5.28;4.38;;;;;;;7.57;100.00;98344.78;6138337;23;20006;-80
2021/12/01 02:33:34;;;;;;;5.50;5.00;;;;;;;7.57;100.00;98336.81;6113481;23;20028;-81
2021/12/01 02:36:00;;;;;;;5.32;4.82;;;;;;;7.56;100.00;98331.63;6163695;23;20001;-80
2021/12/01 02:38:25;;;;;;;6.13;4.85;;;;;;;7.58;100.00;98332.34;6138232;23;20005;-80
2021/12/01 02:40:51;;;;;;;5.85;5.20;;;;;;;7.57;100.00;98349.28;6138391;23;20005;-79
2021/12/01 02:43:17;;;;;;;8.02;5.22;;;;;;;7.60;100.00;98374.72;6162278;23;20266;-80
2021/12/01 02:45:43;;;;;;;5.97;5.30;;;;;;;7.57;100.00;98326.19;6164102;23;20013;-81
2021/12/01 02:48:12;;;;;;;6.35;5.53;;;;;;;7.55;100.00;98320.16;6138118;23;20013;-80
2021/12/01 02:50:37;;;;;;;6.88;5.82;;;;;;;7.55;100.00;98319.31;6162564;23;20013;-80
2021/12/01 02:53:02;;;;;;;7.28;5.70;;;;;;;7.53;100.00;98308.84;6138352;23;20009;-80
2021/12/01 02:55:29;;;;;;;6.15;5.22;;;;;;;7.53;100.00;98319.47;6162330;23;20002;-79
2021/12/01 02:57:54;;;;;;;6.55;5.70;;;;;;;7.52;100.00;98312.50;6137686;23;20500;-80
2021/12/01 03:00:22;;;;;;;6.78;5.28;;;;;;;7.54;100.00;98312.34;6138290;23;20009;-80
2021/12/01 03:02:48;;;;;;;5.88;5.15;;;;;;;7.51;100.00;98307.34;6164056;23;20025;-81
2021/12/01 03:05:16;;;;;;;5.95;5.35;;;;;;;7.50;100.00;98295.03;6162143;23;20021;-82
2021/12/01 03:07:42;;;;;;;6.90;5.47;;;;;;;7.51;100.00;98302.84;6138209;23;20036;-80
2021/12/01 03:10:09;;;;;;;5.68;5.07;;;;;;;7.51;100.00;98297.53;6137386;23;20020;-80
2021/12/01 03:12:36;;;;;;;7.40;5.47;;;;;;;7.51;100.00;98288.72;6137885;23;20005;-80
2021/12/01 03:15:03;;;;;;;6.68;5.15;;;;;;;7.48;100.00;98289.88;6163733;23;20016;-81
2021/12/01 03:17:30;;;;;;;5.65;5.05;;;;;;;7.49;100.00;98296.03;6137807;23;20013;-80
2021/12/01 03:19:56;;;;;;;6.47;5.22;;;;;;;7.47;100.00;98282.06;6137960;23;20012;-81
2021/12/01 03:22:22;;;;;;;6.53;5.18;;;;;;;7.44;100.00;98311.63;6137634;23;20028;-80
2021/12/01 03:24:48;;;;;;;6.13;5.25;;;;;;;7.43;100.00;98300.16;6137343;23;20057;-79
2021/12/01 03:27:13;;;;;;;6.13;5.20;;;;;;;7.41;100.00;98288.84;6164245;23;20322;-81
2021/12/01 03:29:39;;;;;;;7.00;5.47;;;;;;;7.42;100.00;98309.13;6137622;23;20009;-79
2021/12/01 03:32:06;;;;;;;6.45;4.85;;;;;;;7.42;100.00;98276.38;6137922;23;20032;-81
2021/12/01 03:34:34;;;;;;;7.55;5.10;;;;;;;7.38;100.00;98289.16;6137740;23;20016;-81
2021/12/01 03:36:59;;;;;;;5.90;4.45;;;;;;;7.39;100.00;98261.59;6137770;23;20013;-81
2021/12/01 03:39:25;;;;;;;6.10;4.85;;;;;;;7.38;100.00;98257.25;6138152;23;20017;-82
2021/12/01 03:41:50;;;;;;;5.72;5.00;;;;;;;7.39;100.00;98247.47;6137628;23;20496;-80
2021/12/01 03:44:16;;;;;;;5.97;4.63;;;;;;;7.37;100.00;98242.28;6163554;23;20009;-82
2021/12/01 03:46:41;;;;;;;6.55;4.82;;;;;;;7.40;100.00;98234.00;6137240;23;20040;-80
2021/12/01 03:49:07;;;;;;;5.72;4.60;;;;;;;7.40;100.00;98210.06;6137524;23;20018;-80
2021/12/01 03:51:32;;;;;;;5.55;4.63;;;;;;;7.41;100.00;98217.03;6162001;23;20031;-81
2021/12/01 03:53:57;;;;;;;6.05;4.45;;;;;;;7.41;100.00;98202.91;6137664;23;20005;-80
2021/12/01 03:56:23;;;;;;;6.22;4.72;;;;;;;7.37;100.00;98205.06;6137189;23;20018;-80
2021/12/01 03:58:48;;;;;;;5.07;4.55;;;;;;;7.39;100.00;98197.75;6162377;23;20013;-81
2021/12/01 04:01:14;;;;;;;5.03;4.53;;;;;;;7.37;100.00;98186.47;6137858;23;20381;-80
2021/12/01 04:03:39;;;;;;;5.72;4.40;;;;;;;7.38;100.00;98177.50;6137021;23;20029;-81
2021/12/01 04:06:05;;;;;;;5.38;4.43;;;;;;;7.35;100.00;98164.53;6164704;23;20418;-80
2021/12/01 04:08:31;;;;;;;4.70;3.83;;;;;;;7.36;100.00;98152.06;6139750;23;20006;-80
2021/12/01 04:10:56;;;;;;;4.38;3.70;;;;;;;7.36;100.00;98128.13;6165406;23;20017;-79
2021/12/01 04:13:21;;;;;;;5.53;3.53;;;;;;;7.38;100.00;98126.97;6139547;23;20028;-80
2021/12/01 04:15:47;;;;;;;4.00;3.33;;;;;;;7.38;100.00;98129.63;6165774;23;19998;-79
2021/12/01 04:18:12;;;;;;;5.75;3.95;;;;;;;7.36;100.00;98113.00;6139295;23;20010;-80
2021/12/01 04:20:38;;;;;;;3.38;2.85;;;;;;;7.37;100.00;98111.19;6139579;23;20006;-80
2021/12/01 04:23:03;;;;;;;4.65;3.20;;;;;;;7.38;100.00;98102.22;6139452;23;20028;-80
2021/12/01 04:25:29;;;;;;;3.72;3.00;;;;;;;7.39;100.00;98106.53;6139029;23;20005;-80
2021/12/01 04:27:54;;;;;;;3.67;2.90;;;;;;;7.40;100.00;98101.03;6139474;23;20006;-80
2021/12/01 04:30:22;;;;;;;4.25;2.92;;;;;;;7.41;100.00;98081.44;6139456;23;20005;-79
2021/12/01 04:32:47;;;;;;;3.17;2.88;;;;;;;7.40;100.00;98086.91;6139172;23;20045;-81
2021/12/01 04:35:15;;;;;;;3.00;2.70;;;;;;;7.37;100.00;98061.50;6139177;23;20013;-80
2021/12/01 04:37:41;;;;;;;2.73;2.50;;;;;;;7.38;100.00;98052.53;6165443;23;20006;-80
2021/12/01 04:40:07;;;;;;;3.67;2.80;;;;;;;7.42;99.97;98042.38;6164015;23;20269;-81
2021/12/01 04:42:33;;;;;;;3.30;2.40;;;;;;;7.40;100.00;98041.72;6165524;23;20009;-80
2021/12/01 04:44:59;;;;;;;2.50;2.30;;;;;;;7.39;100.00;98032.91;6164631;23;20012;-79
2021/12/01 04:47:30;;;;;;;3.20;2.30;;;;;;;7.43;99.93;98041.38;6139230;23;20018;-81
2021/12/01 04:49:56;;;;;;;2.30;2.08;;;;;;;7.42;99.97;98035.25;6140528;23;20121;-80
2021/12/01 04:52:21;;;;;;;4.97;2.35;;;;;;;7.39;99.91;98032.06;6139342;23;20005;-80
2021/12/01 04:54:47;;;;;;;4.43;2.50;;;;;;;7.40;99.58;98023.09;6114302;23;20013;-80
2021/12/01 04:57:12;;;;;;;2.70;2.40;;;;;;;7.42;99.29;98037.06;6139069;23;20013;-80
2021/12/01 04:59:37;;;;;;;3.15;2.50;;;;;;;7.39;99.38;98016.97;6138769;23;20574;-79
2021/12/01 05:02:04;;;;;;;3.45;1.95;;;;;;;7.39;99.25;98001.00;6165093;23;20032;-81
2021/12/01 05:04:29;;;;;;;3.38;2.47;;;;;;;7.38;99.59;97993.19;6138616;23;20005;-80
2021/12/01 05:06:55;;;;;;;2.42;2.22;;;;;;;7.39;99.35;97993.03;6165355;23;20005;-80
2021/12/01 05:09:20;;;;;;;3.75;2.53;;;;;;;7.38;99.38;97974.59;6162995;23;20010;-80
2021/12/01 05:11:45;;;;;;;4.18;2.40;;;;;;;7.38;99.34;97964.78;6138840;23;20241;-80
2021/12/01 05:14:12;;;;;;;4.05;2.55;;;;;;;7.39;99.51;97949.66;6164580;23;20005;-80
2021/12/01 05:16:39;;;;;;;2.50;2.20;;;;;;;7.38;99.83;97924.91;6138921;23;20005;-80
2021/12/01 05:19:07;;;;;;;2.85;2.28;;;;;;;7.38;99.80;97903.63;6139316;23;20012;-79
2021/12/01 05:21:34;;;;;;;2.88;2.00;;;;;;;7.39;99.69;97896.47;6139283;23;20009;-80
2021/12/01 05:24:00;;;;;;;2.72;2.15;;;;;;;7.37;99.96;97912.59;6138733;23;20008;-80
2021/12/01 05:26:25;;;;;;;2.70;1.83;;;;;;;7.36;99.56;97902.97;6163017;23;20062;-79
2021/12/01 05:28:51;;;;;;;2.85;1.95;;;;;;;7.38;99.65;97874.38;6138439;23;20005;-79
2021/12/01 05:31:16;;;;;;;3.05;2.10;;;;;;;7.39;99.19;97889.34;6138705;23;20014;-80
2021/12/01 05:33:42;;;;;;;2.05;1.70;;;;;;;7.39;99.72;97886.69;6138706;23;20035;-80
2021/12/01 05:36:08;;;;;;;2.50;2.03;;;;;;;7.38;99.93;97902.78;6138534;23;20422;-79
2021/12/01 05:38:33;;;;;;;2.63;1.80;;;;;;;7.37;99.30;97877.22;6138724;23;20010;-79
2021/12/01 05:41:00;;;;;;;2.00;1.80;;;;;;;7.38;99.46;97870.88;6114062;23;20020;-80
2021/12/01 05:43:25;;;;;;;2.08;1.73;;;;;;;7.38;99.05;97869.06;6138705;23;20001;-80
2021/12/01 05:45:51;;;;;;;2.05;1.83;;;;;;;7.39;99.59;97859.25;6113549;23;20016;-81
2021/12/01 05:48:16;;;;;;;1.67;1.40;;;;;;;7.39;99.35;97853.94;6138100;23;20013;-80
2021/12/01 05:50:42;;;;;;;1.52;1.42;;;;;;;7.41;99.13;97846.63;6138742;23;20017;-80
2021/12/01 05:53:07;;;;;;;3.30;1.48;;;;;;;7.40;98.77;97839.66;6139017;23;20020;-79
2021/12/01 05:55:33;;;;;;;1.75;1.58;;;;;;;7.39;98.88;97843.31;6162779;23;20345;-81
2021/12/01 05:57:59;;;;;;;2.00;1.33;;;;;;;7.35;98.93;97824.19;6138631;23;20006;-80
2021/12/01 06:00:24;;;;;;;1.40;1.30;;;;;;;7.39;98.84;97824.69;6137957;23;19997;-80
2021/12/01 06:02:51;;;;;;;1.40;1.20;;;;;;;7.35;98.62;97805.59;6137787;23;19998;-80
2021/12/01 06:05:18;;;;;;;1.38;1.27;;;;;;;7.38;99.23;97821.19;6137646;23;20081;-80
2021/12/01 06:07:43;;;;;;;1.30;1.20;;;;;;;7.39;98.64;97824.69;6164081;23;20037;-81
2021/12/01 06:10:09;;;;;;;1.63;1.00;;;;;;;7.40;98.45;97810.41;6137502;23;20001;-80
2021/12/01 06:12:34;;;;;;;1.73;1.02;;;;;;;7.41;98.46;97814.72;6113428;23;20496;-79
2021/12/01 06:15:00;;;;;;;1.30;1.05;;;;;;;7.43;98.73;97808.22;6163588;23;20006;-80
2021/12/01 06:17:26;;;;;;;1.23;1.10;;;;;;;7.43;98.33;97821.53;6164636;23;20089;-81
2021/12/01 06:19:52;;;;;;;0.95;0.93;;;;;;;7.43;97.99;97799.41;6163156;23;20029;-79
2021/12/01 06:22:17;;;;;;;0.77;0.77;;;;;;;7.43;98.24;97778.97;6138214;23;20006;-80
2021/12/01 06:24:43;;;;;;;0.85;0.80;;;;;;;7.42;98.27;97789.78;6138188;23;20017;-80
2021/12/01 06:27:08;;;;;;;1.10;0.88;;;;;;;7.40;98.06;97781.97;6138508;23;20009;-81
2021/12/01 06:29:33;;;;;;;0.95;0.80;;;;;;;7.42;98.23;97787.97;6137885;23;20012;-80
2021/12/01 06:31:59;;;;;;;0.60;0.60;;;;;;;7.44;98.08;97785.94;6162812;23;20123;-81
2021/12/01 06:34:24;;;;;;;1.98;0.75;;;;;;;7.44;97.70;97787.78;6161806;23;20069;-81
2021/12/01 06:36:50;;;;;;;1.45;0.85;;;;;;;7.44;97.91;97787.78;6137973;23;20009;-80
2021/12/01 06:39:15;;;;;;;0.60;0.60;;;;;;;7.46;97.86;97781.28;6162188;23;20036;-80
2021/12/01 06:41:40;;;;;;;1.27;0.80;;;;;;;7.48;98.20;97754.53;6137228;23;20020;-78
2021/12/01 06:44:06;;;;;;;0.50;0.50;;;;;;;7.46;98.11;97767.16;6137558;23;20017;-79
2021/12/01 06:46:31;;;;;;;0.70;0.60;;;;;;;7.45;97.93;97760.19;6163528;23;20013;-79
2021/12/01 06:48:57;;;;;;;1.60;1.50;;;;;;;7.45;98.20;97745.06;6137792;23;20010;-80
2021/12/01 06:51:23;;;;;;;1.13;0.82;;;;;;;7.47;98.17;97750.22;6162046;23;20017;-79
2021/12/01 06:53:49;;;;;;;0.68;0.60;;;;;;;7.45;98.36;97742.41;6136895;23;20013;-80
2021/12/01 06:56:16;;;;;;;1.02;0.55;;;;;;;7.44;98.30;97745.25;6162369;23;20009;-79
2021/12/01 06:58:42;;;;;;;0.50;0.50;;;;;;;7.43;98.18;97741.75;6138047;23;20017;-79
2021/12/01 07:01:08;;;;;;;0.68;0.60;;;;;;;7.46;98.51;97744.06;6161780;23;20010;-80
2021/12/01 07:03:34;;;;;;;0.47;0.47;;;;;;;7.46;98.50;97721.97;6136949;23;20012;-81
2021/12/01 07:05:59;;;;;;;0.30;0.30;;;;;;;7.49;98.31;97734.91;6136534;23;20084;-80
2021/12/01 07:08:25;;;;;;;0.80;0.63;;;;;;;7.48;98.26;97714.63;6161697;23;20790;-80
2021/12/01 07:10:51;;;;;;;0.50;0.50;;;;;;;7.50;98.42;97732.06;6136282;23;20064;-79
2021/12/01 07:13:16;;;;;;;0.60;0.52;;;;;;;7.52;98.30;97723.94;6137205;23;20014;-80
2021/12/01 07:15:42;;;;;;;0.63;0.50;;;;;;;7.53;98.77;97717.59;6136895;23;20021;-78
2021/12/01 07:18:08;;;;;;;0.70;0.50;;;;;;;7.54;98.30;97717.44;6162371;23;20065;-78
2021/12/01 07:20:33;;;;;;;0.80;0.40;;;;;;;7.56;98.31;97709.28;6137699;23;20009;-79
2021/12/01 07:22:59;;;;;;;0.70;0.50;;;;;;;7.55;98.07;97707.63;6163860;23;20025;-81
2021/12/01 07:25:24;;;;;;;0.40;0.40;;;;;;;7.53;98.18;97707.78;6112217;23;20006;-80
2021/12/01 07:27:49;;;;;;;0.40;0.40;;;;;;;7.56;98.01;97707.44;6136565;23;20002;-80
2021/12/01 07:30:15;;;;;;;0.95;0.63;;;;;;;7.54;97.72;97677.53;6163847;23;20609;-80
2021/12/01 07:32:40;;;;;;;0.40;0.40;;;;;;;7.55;98.42;97700.47;6136993;23;20005;-79
2021/12/01 07:35:06;;;;;;;0.73;0.52;;;;;;;7.53;97.61;97689.19;6137305;23;20021;-80
2021/12/01 07:37:32;;;;;;;0.38;0.38;;;;;;;7.55;97.62;97681.84;6161908;23;20084;-79
2021/12/01 07:39:57;;;;;;;0.50;0.40;;;;;;;7.53;97.60;97699.81;6137051;23;20005;-79
2021/12/01 07:42:22;;;;;;;0.43;0.43;;;;;;;7.57;97.45;97687.03;6165130;23;20130;-80
2021/12/01 07:44:48;;;;;;;0.93;0.50;;;;;;;7.56;97.72;97664.91;6164912;23;20029;-79
2021/12/01 07:47:13;;;;;;;0.40;0.40;;;;;;;7.58;97.42;97659.44;6164922;23;20016;-79
2021/12/01 07:49:39;;;;;;;0.45;0.30;;;;;;;7.58;97.59;97678.03;6138158;23;20044;-79
2021/12/01 07:52:05;;;;;;;0.38;0.30;;;;;;;7.58;97.17;97665.56;6139018;23;20021;-79
2021/12/01 07:54:32;;;;;;;0.40;0.40;;;;;;;7.60;97.34;97664.56;6114124;23;20009;-78
2021/12/01 07:56:57;;;;;;;0.68;0.30;;;;;;;7.58;97.09;97656.78;6139071;23;20009;-79
2021/12/01 07:59:23;;;;;;;0.40;0.30;;;;;;;7.57;96.93;97663.91;6139145;23;20013;-79
2021/12/01 08:01:48;;;;;;;0.28;0.20;;;;;;;7.58;97.23;97654.09;6138033;23;20001;-80
2021/12/01 08:04:14;;;;;;;0.50;0.38;;;;;;;7.58;97.47;97654.09;6138460;23;20073;-80
2021/12/01 08:06:44;;;;;;;2.28;0.30;;;;;;;7.59;97.50;97658.44;6138629;23;20016;-79
2021/12/01 08:09:10;;;;;;;0.20;0.20;;;;;;;7.58;97.44;97648.78;6137872;23;20085;-79
2021/12/01 08:11:36;;;;;;;0.82;0.50;;;;;;;7.59;97.66;97658.44;6162180;23;20477;-80
2021/12/01 08:14:01;;;;;;;0.98;0.32;;;;;;;7.62;97.62;97612.84;6138902;23;20009;-81
2021/12/01 08:16:27;;;;;;;0.30;0.30;;;;;;;7.62;97.84;97634.13;6163125;23;20013;-78
2021/12/01 08:18:55;;;;;;;0.60;0.30;;;;;;;7.63;97.57;97624.31;6138413;23;20009;-78
2021/12/01 08:21:23;;;;;;;0.80;0.30;;;;;;;7.61;98.33;97608.53;6164330;23;20059;-78
2021/12/01 08:23:50;;;;;;;0.30;0.30;;;;;;;7.63;98.14;97614.50;6162613;23;20121;-79
2021/12/01 08:26:15;;;;;;;0.57;0.20;;;;;;;7.62;98.14;97631.47;6138094;23;20004;-79
2021/12/01 08:28:42;;;;;;;0.35;0.28;;;;;;;7.64;98.07;97625.97;6138360;23;20005;-79
2021/12/01 08:31:08;;;;;;;1.65;0.40;;;;;;;7.63;98.28;97630.47;6138021;23;20394;-79
2021/12/01 08:33:33;;;;;;;0.95;0.30;;;;;;;7.63;98.65;97634.97;6138534;23;20008;-79
2021/12/01 08:35:59;;;;;;;0.75;0.30;;;;;;;7.62;98.23;97612.84;6138613;23;20064;-79
2021/12/01 08:38:24;;;;;;;0.60;0.20;;;;;;;7.63;98.45;97624.31;6164355;23;20013;-80
2021/12/01 08:40:49;;;;;;;1.35;0.22;;;;;;;7.63;98.77;97624.31;6139180;23;20009;-78
2021/12/01 08:43:15;;;;;;;0.50;0.30;;;;;;;7.62;98.51;97604.88;6163336;23;20013;-78
2021/12/01 08:45:40;;;;;;;0.98;0.52;;;;;;;7.63;98.76;97613.69;6137077;23;20017;-78
2021/12/01 08:48:06;;;;;;;0.68;0.20;;;;;;;7.64;98.64;97618.81;6162822;23;20009;-79
2021/12/01 08:50:32;;;;;;;0.65;0.10;;;;;;;7.66;98.27;97603.50;6138192;23;20060;-79
2021/12/01 08:52:58;;;;;;;0.85;0.20;;;;;;;7.65;98.56;97601.03;6137903;23;20017;-79
2021/12/01 08:55:23;;;;;;;1.75;0.20;;;;;;;7.67;98.46;97599.84;6164001;23;20077;-79
2021/12/01 08:57:51;;;;;;;1.30;0.30;;;;;;;7.69;98.60;97597.84;6163031;23;20009;-79
2021/12/01 09:00:19;;;;;;;0.10;0.10;;;;;;;7.69;98.47;97599.69;6138187;23;20064;-79
2021/12/01 09:02:44;;;;;;;1.17;0.20;;;;;;;7.69;98.66;97602.34;6138846;23;20010;-78
2021/12/01 09:05:09;;;;;;;1.65;0.10;;;;;;;7.70;98.70;97602.16;6138085;23;20020;-79
2021/12/01 09:07:35;;;;;;;1.00;0.25;;;;;;;7.71;98.97;97587.84;6138739;23;20067;-79
2021/12/01 09:10:00;;;;;;;0.47;0.22;;;;;;;7.71;98.81;97603.81;6164281;23;20013;-79
2021/12/01 09:12:26;;;;;;;0.80;0.17;;;;;;;7.74;98.58;97587.50;6138693;23;20326;-79
2021/12/01 09:14:55;;;;;;;0.88;0.20;;;;;;;7.75;99.06;97597.13;6137601;23;20002;-78
2021/12/01 09:17:20;;;;;;;;;;;;;;;7.77;98.46;97588.97;6164364;23;20013;-79
2021/12/01 09:19:46;;;;;;;0.70;0.20;;;;;;;7.77;98.67;97586.31;6137916;23;19951;-79
2021/12/01 09:22:12;;;;;;;0.03;0.03;;;;;;;7.75;98.10;97597.13;6162758;23;20012;-78
2021/12/01 09:24:38;;;;;;;0.10;0.10;;;;;;;7.75;98.37;97607.75;6163845;23;20005;-78
2021/12/01 09:27:04;;;;;;;0.13;0.10;;;;;;;7.76;98.95;97569.53;6139052;23;20028;-79
2021/12/01 09:29:30;;;;;;;0.10;0.10;;;;;;;7.75;98.53;97573.19;6138392;23;20005;-79
2021/12/01 09:31:57;;;;;;;0.10;0.10;;;;;;;7.75;98.50;97575.84;6138455;23;20033;-78
2021/12/01 09:34:22;;;;;;;0.52;0.45;;;;;;;7.79;99.11;97565.66;6137536;23;20016;-78
2021/12/01 09:36:47;;;;;;;0.20;0.20;;;;;;;7.80;98.43;97568.16;6138319;23;20009;-78
2021/12/01 09:39:13;;;;;;;0.20;0.15;;;;;;;7.80;98.56;97567.31;6162714;23;20009;-78
2021/12/01 09:41:39;;;;;;;0.10;0.10;;;;;;;7.81;98.66;97577.78;6138116;23;20006;-78
2021/12/01 09:44:04;;;;;;;0.10;0.10;;;;;;;7.79;98.15;97574.47;6137802;23;20008;-79
2021/12/01 09:46:30;;;;;;;0.20;0.10;;;;;;;7.81;98.83;97585.75;6137995;23;20005;-79
2021/12/01 09:48:57;;;;;;;0.13;0.10;;;;;;;7.82;98.26;97570.63;6163785;23;20006;-78
2021/12/01 09:51:22;;;;;;;0.10;0.10;;;;;;;7.80;98.93;97562.00;6137809;23;20010;-79
2021/12/01 09:53:48;;;;;;;0.10;0.00;;;;;;;7.81;98.50;97569.81;6138247;23;20033;-79
2021/12/01 09:56:14;;;;;;;0.47;0.20;;;;;;;7.82;98.57;97575.94;6162228;23;20052;-78
2021/12/01 09:58:41;;;;;;;0.10;0.10;;;;;;;7.85;98.72;97567.59;6138364;23;20785;-79
2021/12/01 10:01:09;;;;;;;0.65;0.10;;;;;;;7.83;98.73;97573.09;6138264;23;20009;-79
2021/12/01 10:03:35;;;;;;;0.20;0.10;;;;;;;7.84;98.55;97560.63;6162102;23;20074;-79
2021/12/01 10:06:04;;;;;;;0.15;0.08;;;;;;;7.84;98.51;97556.13;6162035;23;20006;-78
2021/12/01 10:08:43;;;;;;;0.28;0.20;;;;;;;7.84;98.55;97547.34;6137890;23;20002;-79
2021/12/01 10:11:09;;;;;;;;;;;;;;;7.87;98.64;97547.78;6138433;23;20032;-79
2021/12/01 10:13:37;;;;;;;0.20;0.20;;;;;;;7.85;98.79;97539.16;6137543;23;19960;-78
2021/12/01 10:16:06;;;;;;;0.60;0.20;;;;;;;7.85;99.19;97551.66;6137917;23;20009;-79
2021/12/01 10:18:36;;;;;;;0.50;0.20;;;;;;;7.83;98.86;97546.50;6162375;23;20009;-78
2021/12/01 10:21:06;;;;;;;0.10;0.10;;;;;;;7.85;98.63;97546.31;6163884;23;20013;-78
2021/12/01 10:23:33;;;;;;;0.10;0.10;;;;;;;7.87;98.89;97539.00;6137954;23;20002;-79
2021/12/01 10:26:20;;;;;;;0.10;0.10;;;;;;;7.92;99.15;97538.44;6113060;23;20010;-78
2021/12/01 10:28:48;;;;;;;0.88;0.20;;;;;;;7.92;99.24;97535.78;6137436;23;20005;-79
2021/12/01 10:31:14;;;;;;;0.20;0.20;;;;;;;7.92;99.21;97530.47;6137029;23;20005;-79
2021/12/01 10:33:40;;;;;;;0.80;0.20;;;;;;;7.91;98.82;97532.28;6136578;23;20039;-78
2021/12/01 10:36:07;;;;;;;0.13;0.13;;;;;;;7.90;99.45;97522.66;6161641;23;20005;-79
2021/12/01 10:38:37;;;;;;;1.02;0.17;;;;;;;7.90;99.61;97518.16;6162276;23;20013;-79
2021/12/01 10:41:07;;;;;;;0.10;0.10;;;;;;;7.92;99.61;97503.84;6137123;23;20011;-80
2021/12/01 10:43:46;;;;;;;0.13;0.10;;;;;;;7.92;99.66;97503.84;6137203;23;20084;-79
2021/12/01 10:46:15;;;;;;;0.40;0.20;;;;;;;7.92;99.46;97509.19;6137790;23;20006;-79
2021/12/01 10:48:41;;;;;;;1.00;0.20;;;;;;;7.93;99.37;97510.81;6162036;23;20028;-79
2021/12/01 10:51:09;;;;;;;0.13;0.13;;;;;;;7.95;99.56;97512.28;6136800;23;20009;-75
2021/12/01 10:53:34;;;;;;;0.20;0.20;;;;;;;7.97;99.92;97488.16;6161981;23;20033;-75
2021/12/01 10:56:02;;;;;;;0.70;0.30;;;;;;;7.96;99.97;97490.00;6134881;23;20037;-74
2021/12/01 10:58:39;;;;;;;0.57;0.10;;;;;;;7.98;100.00;97485.31;6136267;23;20068;-73
2021/12/01 11:01:16;;;;;;;0.50;0.45;;;;;;;7.96;100.00;97484.69;6136249;23;20016;-74
2021/12/01 11:03:45;;;;;;;0.10;0.10;;;;;;;7.97;100.00;97474.84;6134898;23;20008;-73
2021/12/01 11:06:20;;;;;;;0.13;0.13;;;;;;;7.97;100.00;97481.00;6161514;23;20012;-73
2021/12/01 11:08:55;;;;;;;0.10;0.10;;;;;;;7.98;99.94;97476.50;6161910;23;20033;-73
2021/12/01 11:11:20;;;;;;;0.82;0.13;;;;;;;7.98;100.00;97471.19;6137075;23;20056;-74
2021/12/01 11:13:47;;;;;;;0.88;0.30;;;;;;;8.00;100.00;97483.31;6136072;23;20041;-73
2021/12/01 11:16:14;;;;;;;0.20;0.20;;;;;;;8.01;100.00;97484.13;6136046;23;20006;-73
2021/12/01 11:18:46;;;;;;;0.30;0.30;;;;;;;8.01;100.00;97486.78;6160704;23;20090;-73
2021/12/01 11:21:14;;;;;;;0.30;0.28;;;;;;;8.03;100.00;97487.44;6160008;23;20009;-73
2021/12/01 11:23:41;;;;;;;0.70;0.38;;;;;;;8.04;100.00;97481.09;6162411;23;20112;-73
2021/12/01 11:26:13;;;;;;;0.43;0.43;;;;;;;8.04;100.00;97481.09;6135903;23;20013;-72
2021/12/01 11:28:44;;;;;;;0.70;0.40;;;;;;;8.04;100.00;97481.09;6162246;23;20019;-73
2021/12/01 11:31:21;;;;;;;0.50;0.50;;;;;;;8.06;100.00;97489.75;6135912;23;20005;-74
2021/12/01 11:33:48;;;;;;;0.80;0.70;;;;;;;8.05;100.00;97483.59;6136209;23;20013;-73
2021/12/01 11:36:19;;;;;;;0.77;0.77;;;;;;;8.04;100.00;97494.41;6162016;23;20478;-73
2021/12/01 11:38:51;;;;;;;2.40;0.90;;;;;;;8.02;100.00;97496.44;6162382;23;20005;-73
2021/12/01 11:41:16;;;;;;;2.25;1.10;;;;;;;8.01;100.00;97492.94;6162119;23;20006;-74